Time;durP1;ratioP1;P1;durP2;ratioP2;P2;SDS_P1;SDS_P2;PMS_P1;PMS_P2;Temp;Humidity;BMP_temperature;BMP_pressure;BME280_temperature;BME280_humidity;BME280_pressure;Samples;Min_cycle;Max_cycle;Signal;HPM_P1;HPM_P2
2022/07/04 00:00:51;;;;;;;3.92;1.40;;;21.80;93.20;;;;;;6862215;28;20442;-76
2022/07/04 00:04:14;;;;;;;3.80;1.58;;;21.60;93.80;;;;;;6850716;28;20968;-76
2022/07/04 00:07:36;;;;;;;3.77;1.40;;;21.50;94.00;;;;;;6860262;28;20443;-77
2022/07/04 00:10:58;;;;;;;3.78;1.30;;;21.70;93.60;;;;;;6866547;28;20431;-77
2022/07/04 00:14:21;;;;;;;4.30;1.50;;;21.90;93.20;;;;;;6861243;28;20471;-76
2022/07/04 00:17:43;;;;;;;3.15;1.35;;;22.00;92.70;;;;;;6853629;28;20475;-76
2022/07/04 00:21:05;;;;;;;3.77;1.50;;;22.20;92.10;;;;;;6857126;28;20527;-79
2022/07/04 00:24:27;;;;;;;4.78;1.40;;;22.20;91.90;;;;;;6860510;28;20502;-79
2022/07/04 00:27:49;;;;;;;5.80;1.30;;;22.20;92.10;;;;;;6855343;28;20456;-77
2022/07/04 00:31:13;;;;;;;3.77;1.57;;;22.20;92.30;;;;;;6838111;28;20436;-78
2022/07/04 00:34:35;;;;;;;4.03;1.23;;;22.20;92.20;;;;;;6861474;28;20436;-80
2022/07/04 00:37:57;;;;;;;3.30;1.25;;;22.30;92.50;;;;;;6859232;28;20477;-80
2022/07/04 00:41:19;;;;;;;3.65;1.30;;;22.30;92.20;;;;;;6859864;28;20436;-80
2022/07/04 00:44:42;;;;;;;4.47;1.38;;;22.30;92.00;;;;;;6861158;28;20455;-81
2022/07/04 00:48:06;;;;;;;3.43;1.30;;;22.30;91.60;;;;;;6860302;28;20492;-79
2022/07/04 00:51:28;;;;;;;4.30;1.50;;;22.20;91.20;;;;;;6858919;28;20471;-78
2022/07/04 00:54:50;;;;;;;2.77;1.30;;;22.00;91.80;;;;;;6860333;28;20436;-78
2022/07/04 00:58:14;;;;;;;3.63;1.20;;;22.00;91.90;;;;;;6858429;28;20492;-78
2022/07/04 01:01:37;;;;;;;3.28;1.40;;;22.00;91.70;;;;;;6860116;28;20486;-78
2022/07/04 01:05:00;;;;;;;2.92;1.30;;;22.00;91.40;;;;;;6859976;28;20847;-78
2022/07/04 01:08:22;;;;;;;5.50;1.30;;;22.10;91.20;;;;;;6859480;28;20538;-79
2022/07/04 01:11:44;;;;;;;3.40;1.30;;;22.20;91.40;;;;;;6859795;28;20566;-79
2022/07/04 01:15:08;;;;;;;4.00;1.30;;;22.20;92.10;;;;;;6860613;28;20455;-78
2022/07/04 01:18:32;;;;;;;3.63;1.30;;;22.20;91.60;;;;;;6860397;28;20491;-78
2022/07/04 01:21:55;;;;;;;4.13;1.40;;;22.30;92.50;;;;;;6858779;28;20436;-79
2022/07/04 01:25:17;;;;;;;3.35;1.40;;;22.30;92.20;;;;;;6858755;28;20911;-78
2022/07/04 01:28:40;;;;;;;4.17;1.40;;;22.30;92.30;;;;;;6859818;28;20464;-79
2022/07/04 01:32:06;;;;;;;3.25;1.30;;;22.30;92.60;;;;;;6878150;28;20525;-79
2022/07/04 01:35:28;;;;;;;4.38;1.50;;;22.20;91.90;;;;;;6867600;28;20953;-79
2022/07/04 01:38:52;;;;;;;4.25;1.40;;;22.20;92.60;;;;;;6860661;28;20463;-77
2022/07/04 01:42:14;;;;;;;3.45;1.40;;;22.20;92.30;;;;;;6857722;28;20440;-78
2022/07/04 01:45:37;;;;;;;4.32;1.20;;;22.20;91.40;;;;;;6858653;28;20486;-77
2022/07/04 01:48:59;;;;;;;3.90;1.40;;;22.20;91.70;;;;;;6860916;28;20440;-78
2022/07/04 01:52:21;;;;;;;6.00;1.40;;;22.20;91.80;;;;;;6857531;28;20583;-79
2022/07/04 01:55:44;;;;;;;5.05;1.55;;;22.20;91.50;;;;;;6859841;28;20435;-77
2022/07/04 01:59:06;;;;;;;4.00;1.40;;;22.20;92.20;;;;;;6860352;28;20474;-80
2022/07/04 02:02:28;;;;;;;4.80;1.50;;;22.20;91.60;;;;;;6857591;28;20472;-79
2022/07/04 02:05:50;;;;;;;3.75;1.40;;;22.20;91.70;;;;;;6859150;28;20799;-76
2022/07/04 02:09:19;;;;;;;3.50;1.20;;;22.20;91.70;;;;;;6859354;28;20482;-78
2022/07/04 02:16:22;;;;;;;3.83;1.42;;;22.20;92.90;;;;;;6858937;28;20922;-77
2022/07/04 02:19:44;;;;;;;4.95;1.40;;;22.20;91.30;;;;;;6858185;28;20929;-77
2022/07/04 02:23:07;;;;;;;4.65;1.48;;;22.20;92.40;;;;;;6857514;28;20538;-80
2022/07/04 02:26:29;;;;;;;5.07;1.48;;;22.10;93.90;;;;;;6859422;28;20444;-78
2022/07/04 02:29:52;;;;;;;4.67;1.37;;;22.00;92.00;;;;;;6857177;28;21064;-77
2022/07/04 02:33:14;;;;;;;4.00;1.38;;;22.00;94.00;;;;;;6862554;28;20470;-79
2022/07/04 02:36:36;;;;;;;3.60;1.40;;;22.00;92.10;;;;;;6863622;28;20440;-78
2022/07/04 02:39:58;;;;;;;3.47;1.35;;;22.00;91.50;;;;;;6863087;28;20478;-79
2022/07/04 02:43:20;;;;;;;3.22;1.30;;;22.00;91.50;;;;;;6863762;28;20467;-79
2022/07/04 02:46:44;;;;;;;3.60;1.40;;;22.00;94.00;;;;;;6863100;28;20447;-78
2022/07/04 02:50:07;;;;;;;3.03;1.30;;;21.90;94.50;;;;;;6864211;28;20474;-78
2022/07/04 02:53:29;;;;;;;3.22;1.33;;;21.70;94.80;;;;;;6859643;28;20451;-79
2022/07/04 02:56:51;;;;;;;3.42;1.40;;;21.70;95.00;;;;;;6864106;28;20473;-77
2022/07/04 03:00:15;;;;;;;3.20;1.33;;;21.70;94.30;;;;;;6861797;28;20446;-77
2022/07/04 03:03:38;;;;;;;4.72;1.52;;;21.70;93.40;;;;;;6862304;28;20854;-78
2022/07/04 03:07:01;;;;;;;5.32;1.48;;;21.60;93.30;;;;;;6863019;28;20448;-77
2022/07/04 03:10:23;;;;;;;4.13;1.40;;;21.60;93.40;;;;;;6855221;28;20436;-79
2022/07/04 03:13:45;;;;;;;3.78;1.50;;;21.50;93.30;;;;;;6862949;28;20484;-78
2022/07/04 03:17:07;;;;;;;4.47;1.42;;;21.50;94.00;;;;;;6863458;28;20936;-78
2022/07/04 03:20:30;;;;;;;3.60;1.40;;;21.50;94.10;;;;;;6858731;28;20447;-79
2022/07/04 03:23:58;;;;;;;3.97;1.50;;;21.50;94.50;;;;;;6844439;28;20550;-79
2022/07/04 03:27:20;;;;;;;3.85;1.38;;;21.50;95.20;;;;;;6862740;28;20435;-78
2022/07/04 03:30:42;;;;;;;3.63;1.30;;;21.50;93.60;;;;;;6869116;28;20474;-79
2022/07/04 03:34:04;;;;;;;4.13;1.58;;;21.60;93.70;;;;;;6863208;28;20960;-79
2022/07/04 03:37:27;;;;;;;3.83;1.60;;;21.60;94.20;;;;;;6860912;28;20475;-79
2022/07/04 03:40:49;;;;;;;4.70;1.50;;;21.70;95.00;;;;;;6861534;28;20496;-79
2022/07/04 03:44:11;;;;;;;5.60;1.60;;;21.70;94.40;;;;;;6861948;28;20443;-80
2022/07/04 03:47:34;;;;;;;3.42;1.60;;;21.50;95.10;;;;;;6862842;28;20443;-81
2022/07/04 03:50:56;;;;;;;4.40;1.53;;;21.30;95.20;;;;;;6860845;28;20530;-78
2022/07/04 03:54:19;;;;;;;5.90;1.55;;;21.20;95.60;;;;;;6861138;28;20922;-77
2022/07/04 03:57:41;;;;;;;5.45;1.38;;;21.30;95.70;;;;;;6862353;28;20443;-80
2022/07/04 04:01:04;;;;;;;6.43;1.70;;;21.20;95.90;;;;;;6845944;28;20859;-79
2022/07/04 04:08:02;;;;;;;4.95;1.60;;;21.10;96.30;;;;;;6792827;29;20505;-79
2022/07/04 04:11:26;;;;;;;5.55;1.70;;;21.00;96.40;;;;;;6835087;28;20445;-78
2022/07/04 04:14:48;;;;;;;4.70;1.60;;;21.00;96.80;;;;;;6842770;28;20873;-79
2022/07/04 04:18:10;;;;;;;3.92;1.60;;;21.00;96.10;;;;;;6861142;28;20806;-79
2022/07/04 04:21:32;;;;;;;3.93;1.60;;;20.90;96.10;;;;;;6860762;28;20459;-79
2022/07/04 04:24:54;;;;;;;5.50;1.63;;;20.90;96.10;;;;;;6888653;28;20513;-79
2022/07/04 04:28:17;;;;;;;4.72;1.60;;;20.90;96.00;;;;;;6883992;28;20434;-79
2022/07/04 04:31:39;;;;;;;4.47;1.50;;;20.90;95.90;;;;;;6857782;28;20488;-78
2022/07/04 04:35:01;;;;;;;3.05;1.52;;;20.90;96.30;;;;;;6848158;28;20440;-78
2022/07/04 04:38:23;;;;;;;4.72;1.60;;;20.80;96.80;;;;;;6862072;28;20435;-79
2022/07/04 04:41:45;;;;;;;6.18;1.85;;;20.70;97.20;;;;;;6861876;28;20474;-78
2022/07/04 04:45:10;;;;;;;4.90;1.70;;;20.70;97.60;;;;;;6860257;28;20480;-78
2022/07/04 04:48:32;;;;;;;3.90;1.60;;;20.60;97.60;;;;;;6861253;28;20480;-79
2022/07/04 04:51:54;;;;;;;4.05;1.60;;;20.50;97.80;;;;;;6875609;28;20495;-78
2022/07/04 04:55:16;;;;;;;4.70;1.90;;;20.50;97.90;;;;;;6860806;28;20440;-78
2022/07/04 04:58:39;;;;;;;7.20;1.67;;;20.50;97.80;;;;;;6860293;28;20447;-78
2022/07/04 05:02:04;;;;;;;4.95;1.65;;;20.50;97.70;;;;;;6887389;28;20438;-76
2022/07/04 05:05:26;;;;;;;4.63;1.55;;;20.50;97.30;;;;;;6868303;28;20480;-78
2022/07/04 05:08:48;;;;;;;4.97;1.83;;;20.40;97.10;;;;;;6860704;28;20759;-77
2022/07/04 05:12:10;;;;;;;4.15;1.63;;;20.50;97.00;;;;;;6861148;28;20840;-77
2022/07/04 05:15:33;;;;;;;5.80;1.60;;;20.50;96.90;;;;;;6861415;28;20445;-78
2022/07/04 05:18:56;;;;;;;5.13;1.75;;;20.50;96.90;;;;;;6858786;28;20484;-79
2022/07/04 05:22:18;;;;;;;4.68;1.83;;;20.50;97.10;;;;;;6860587;28;20447;-77
2022/07/04 05:25:40;;;;;;;4.68;1.70;;;20.40;96.80;;;;;;6860704;28;20447;-78
2022/07/04 05:29:02;;;;;;;4.30;1.80;;;20.50;97.20;;;;;;6860660;28;20478;-79
2022/07/04 05:32:24;;;;;;;4.70;1.77;;;20.50;97.40;;;;;;6859085;28;20472;-78
2022/07/04 05:35:48;;;;;;;5.38;1.90;;;20.60;97.90;;;;;;6859962;28;20806;-77
2022/07/04 05:39:10;;;;;;;5.55;1.90;;;20.60;97.70;;;;;;6860833;28;20459;-80
2022/07/04 05:42:32;;;;;;;5.13;1.70;;;20.60;97.70;;;;;;6887318;28;20477;-77
2022/07/04 05:45:54;;;;;;;4.23;1.70;;;20.70;97.40;;;;;;6887599;28;20909;-78
2022/07/04 05:49:16;;;;;;;3.67;1.50;;;20.80;97.70;;;;;;6862566;28;20447;-77
2022/07/04 05:52:39;;;;;;;5.33;1.70;;;20.90;97.10;;;;;;6859466;28;20438;-78
2022/07/04 05:56:02;;;;;;;6.20;1.60;;;20.90;96.70;;;;;;6861064;28;20458;-79
2022/07/04 05:59:24;;;;;;;5.55;1.90;;;20.90;96.50;;;;;;6859042;28;20451;-78
2022/07/04 06:02:46;;;;;;;4.70;1.80;;;21.00;95.80;;;;;;6859423;28;20467;-78
2022/07/04 06:06:08;;;;;;;5.03;1.70;;;21.00;95.60;;;;;;6863471;28;20869;-79
2022/07/04 06:09:31;;;;;;;4.85;1.80;;;21.00;94.70;;;;;;6864942;28;20841;-79
2022/07/04 06:12:53;;;;;;;4.38;1.70;;;20.90;94.90;;;;;;6891736;28;20900;-78
2022/07/04 06:16:15;;;;;;;3.38;1.75;;;21.10;94.90;;;;;;6866479;28;20468;-76
2022/07/04 06:19:38;;;;;;;5.35;1.60;;;21.10;94.00;;;;;;6865556;28;20443;-78
2022/07/04 06:23:00;;;;;;;5.55;1.70;;;21.10;94.60;;;;;;6865044;28;20436;-78
2022/07/04 06:26:24;;;;;;;5.72;1.80;;;21.10;94.10;;;;;;6863713;28;20450;-77
2022/07/04 06:29:46;;;;;;;4.72;1.80;;;21.10;94.30;;;;;;6853200;28;20445;-79
2022/07/04 06:33:08;;;;;;;5.85;1.80;;;21.10;94.40;;;;;;6837832;29;20438;-79
2022/07/04 06:36:29;;;;;;;7.60;1.90;;;21.10;93.90;;;;;;6838761;28;20493;-77
2022/07/04 06:39:51;;;;;;;5.15;1.88;;;21.00;93.90;;;;;;6864537;28;20491;-79
2022/07/04 06:43:14;;;;;;;4.15;1.60;;;21.10;94.40;;;;;;6863931;28;20583;-79
2022/07/04 06:46:36;;;;;;;4.32;1.63;;;21.10;94.00;;;;;;6863446;28;20487;-79
2022/07/04 06:49:58;;;;;;;5.73;1.90;;;21.20;93.80;;;;;;6864010;28;20446;-78
2022/07/04 06:53:20;;;;;;;7.82;1.90;;;21.30;93.70;;;;;;6863562;28;20520;-78
2022/07/04 06:56:42;;;;;;;6.25;1.85;;;21.30;93.70;;;;;;6865182;28;20478;-78
2022/07/04 07:00:08;;;;;;;6.83;1.90;;;21.40;93.90;;;;;;6864090;28;20488;-78
2022/07/04 07:03:30;;;;;;;6.35;1.90;;;21.30;93.30;;;;;;6865051;28;20925;-78
2022/07/04 07:06:52;;;;;;;6.53;1.90;;;21.30;93.70;;;;;;6882302;28;20444;-78
2022/07/04 07:10:14;;;;;;;4.18;1.85;;;21.40;93.80;;;;;;6864267;28;20443;-78
2022/07/04 07:13:36;;;;;;;5.50;2.00;;;21.30;93.80;;;;;;6885526;28;20478;-78
2022/07/04 07:17:00;;;;;;;6.72;1.90;;;21.30;93.50;;;;;;6887999;28;20477;-80
2022/07/04 07:20:22;;;;;;;5.85;1.90;;;21.40;93.60;;;;;;6890093;28;20773;-79
2022/07/04 07:23:44;;;;;;;6.00;2.00;;;21.60;93.50;;;;;;6890347;28;20438;-78
2022/07/04 07:27:08;;;;;;;6.32;1.85;;;21.70;93.20;;;;;;6882717;28;20914;-78
2022/07/04 07:30:30;;;;;;;6.85;2.03;;;21.60;93.20;;;;;;6863222;28;20435;-79
2022/07/04 07:33:53;;;;;;;5.55;1.85;;;21.70;93.40;;;;;;6848406;28;20434;-78
2022/07/04 07:37:17;;;;;;;6.40;1.73;;;21.60;92.90;;;;;;6838121;29;20442;-79
2022/07/04 07:40:39;;;;;;;4.70;1.65;;;21.60;93.40;;;;;;6840769;28;20442;-78
2022/07/04 07:44:01;;;;;;;4.10;1.80;;;21.60;93.50;;;;;;6862942;28;20490;-79
2022/07/04 07:47:23;;;;;;;5.32;1.73;;;21.80;93.40;;;;;;6890051;28;20485;-78
2022/07/04 07:50:47;;;;;;;6.28;1.80;;;21.90;93.50;;;;;;6890034;28;20441;-75
2022/07/04 07:54:09;;;;;;;5.97;1.70;;;22.10;93.20;;;;;;6889037;28;20441;-76
2022/07/04 07:57:31;;;;;;;5.47;2.00;;;22.20;93.60;;;;;;6865146;28;20462;-75
2022/07/04 08:00:53;;;;;;;6.35;1.90;;;22.30;92.20;;;;;;6862405;28;20790;-79
2022/07/04 08:07:56;;;;;;;8.23;1.90;;;22.40;92.80;;;;;;6860941;28;20886;-79
2022/07/04 08:11:19;;;;;;;6.40;1.85;;;22.30;92.40;;;;;;6859118;28;20488;-78
2022/07/04 08:14:41;;;;;;;5.32;2.00;;;22.20;92.60;;;;;;6856528;28;20818;-76
2022/07/04 08:18:04;;;;;;;5.82;2.00;;;22.30;92.20;;;;;;6857440;28;20488;-79
2022/07/04 08:21:26;;;;;;;5.07;2.07;;;22.40;92.10;;;;;;6858074;28;20483;-78
2022/07/04 08:24:50;;;;;;;5.33;1.80;;;22.30;91.90;;;;;;6857701;28;20451;-79
2022/07/04 08:28:12;;;;;;;5.43;1.75;;;22.30;91.70;;;;;;6857193;28;20483;-78
2022/07/04 08:31:34;;;;;;;6.33;2.23;;;22.30;91.90;;;;;;6882432;28;20485;-78
2022/07/04 08:34:56;;;;;;;4.65;1.83;;;22.40;92.00;;;;;;6884510;28;20466;-80
2022/07/04 08:38:18;;;;;;;5.00;1.70;;;22.50;91.40;;;;;;6884668;28;20920;-78
2022/07/04 08:41:42;;;;;;;5.05;1.85;;;22.50;91.40;;;;;;6884817;28;20938;-78
2022/07/04 08:45:07;;;;;;;5.97;1.70;;;22.60;91.60;;;;;;6884850;28;20889;-77
2022/07/04 08:48:31;;;;;;;4.50;1.67;;;22.70;92.20;;;;;;6881930;28;20816;-80
2022/07/04 08:51:56;;;;;;;4.93;1.90;;;22.70;91.80;;;;;;6883979;28;20481;-80
2022/07/04 08:58:59;;;;;;;5.40;1.90;;;22.80;91.20;;;;;;6882578;28;20442;-75
2022/07/04 09:02:23;;;;;;;5.88;1.85;;;22.80;91.50;;;;;;6883681;28;20489;-78
2022/07/04 09:05:45;;;;;;;5.80;1.83;;;22.90;91.30;;;;;;6884226;28;20473;-78
2022/07/04 09:09:09;;;;;;;5.53;2.10;;;23.20;90.90;;;;;;6859024;28;20443;-78
2022/07/04 09:12:31;;;;;;;5.07;2.00;;;23.30;90.70;;;;;;6854232;28;20448;-79
2022/07/04 09:15:54;;;;;;;7.57;2.10;;;23.40;90.20;;;;;;6857302;28;20436;-78
2022/07/04 09:19:21;;;;;;;4.93;1.73;;;23.30;91.10;;;;;;6857156;28;20478;-79
2022/07/04 09:22:43;;;;;;;5.05;1.80;;;23.50;91.00;;;;;;6855947;28;20487;-78
2022/07/04 09:26:13;;;;;;;6.20;2.10;;;23.60;90.90;;;;;;6856031;28;20467;-79
2022/07/04 09:29:38;;;;;;;5.57;2.13;;;23.70;89.20;;;;;;6854839;28;20467;-77
2022/07/04 09:33:04;;;;;;;5.82;2.08;;;23.70;90.00;;;;;;6861531;28;20459;-77
2022/07/04 09:36:29;;;;;;;6.30;2.10;;;23.80;90.00;;;;;;6874641;28;20788;-77
2022/07/04 09:39:51;;;;;;;4.15;2.10;;;23.60;90.90;;;;;;6861046;28;20447;-79
2022/07/04 09:43:13;;;;;;;7.05;2.20;;;23.80;90.20;;;;;;6861648;28;20563;-79
2022/07/04 09:46:35;;;;;;;6.72;2.22;;;23.90;89.00;;;;;;6861442;28;20496;-78
2022/07/04 09:50:04;;;;;;;6.75;2.25;;;24.00;88.20;;;;;;6844295;28;20488;-77
2022/07/04 09:53:28;;;;;;;5.45;2.00;;;23.70;90.00;;;;;;6836194;29;20480;-79
2022/07/04 09:56:53;;;;;;;6.15;2.40;;;24.00;89.00;;;;;;6847694;28;20480;-80
2022/07/04 10:00:24;;;;;;;6.03;2.25;;;24.20;88.50;;;;;;6861042;28;20495;-79
2022/07/04 10:03:46;;;;;;;6.78;2.10;;;24.20;86.70;;;;;;6861011;28;20439;-78
2022/07/04 10:07:10;;;;;;;5.60;2.20;;;24.20;86.90;;;;;;6850749;28;20505;-80
2022/07/04 10:10:34;;;;;;;6.60;2.30;;;24.30;86.40;;;;;;6840050;28;20970;-78
2022/07/04 10:13:56;;;;;;;5.43;2.05;;;24.20;86.20;;;;;;6857836;28;20435;-74
2022/07/04 10:17:18;;;;;;;5.83;2.27;;;24.20;89.30;;;;;;6859919;28;20486;-77
2022/07/04 10:20:43;;;;;;;7.22;2.40;;;24.40;88.50;;;;;;6859862;28;20439;-76
2022/07/04 10:24:08;;;;;;;6.97;2.30;;;24.30;87.30;;;;;;6849972;28;20500;-75
2022/07/04 10:27:30;;;;;;;5.60;2.03;;;24.40;89.20;;;;;;6833210;29;20452;-75
2022/07/04 10:30:55;;;;;;;6.13;2.50;;;24.50;88.70;;;;;;6858737;28;20439;-77
2022/07/04 10:34:18;;;;;;;6.43;2.43;;;24.40;89.30;;;;;;6838738;28;20441;-75
2022/07/04 10:38:03;;;;;;;6.72;2.42;;;24.20;88.50;;;;;;6832737;29;20907;-75
2022/07/04 10:41:29;;;;;;;6.50;2.22;;;24.40;89.20;;;;;;6832282;29;20438;-75
2022/07/04 10:44:51;;;;;;;5.53;2.10;;;24.60;88.00;;;;;;6833134;29;20445;-75
2022/07/04 10:48:21;;;;;;;5.25;2.20;;;24.40;86.40;;;;;;6864603;28;20452;-76
2022/07/04 10:51:46;;;;;;;5.57;2.00;;;24.60;85.60;;;;;;6857996;28;20830;-75
2022/07/04 10:55:13;;;;;;;5.67;1.90;;;24.50;84.40;;;;;;6886219;28;20996;-76
2022/07/04 10:58:43;;;;;;;5.17;1.97;;;24.50;82.90;;;;;;6861017;28;20480;-76
2022/07/04 11:02:29;;;;;;;4.60;1.85;;;24.60;82.30;;;;;;6859032;28;20467;-76
2022/07/04 11:05:52;;;;;;;5.82;1.98;;;24.70;81.10;;;;;;6858672;28;20499;-76
2022/07/04 11:09:17;;;;;;;6.32;2.00;;;24.80;81.00;;;;;;6859246;28;20443;-76
2022/07/04 11:13:19;;;;;;;5.75;1.90;;;24.80;81.80;;;;;;6854812;28;20917;-76
2022/07/04 11:16:54;;;;;;;5.43;1.70;;;24.70;84.70;;;;;;6857996;28;20850;-76
2022/07/04 11:20:17;;;;;;;6.53;1.70;;;24.90;83.00;;;;;;6865392;28;20445;-76
2022/07/04 11:23:39;;;;;;;5.63;1.80;;;24.90;80.10;;;;;;6863468;28;20443;-77
2022/07/04 11:27:02;;;;;;;5.55;1.70;;;24.80;80.80;;;;;;6858333;28;20807;-76
2022/07/04 11:30:25;;;;;;;4.93;1.70;;;24.90;79.70;;;;;;6884734;28;20473;-77
2022/07/04 11:33:49;;;;;;;4.20;1.60;;;25.00;81.50;;;;;;6885326;28;20427;-76
2022/07/04 11:37:11;;;;;;;5.07;1.60;;;25.00;80.80;;;;;;6874248;28;20444;-77
2022/07/04 11:48:22;;;;;;;6.57;1.70;;;25.10;78.80;;;;;;6844605;28;20452;-76
2022/07/04 11:51:49;;;;;;;4.97;1.80;;;25.10;79.50;;;;;;6857842;28;20440;-77
2022/07/04 11:55:14;;;;;;;4.93;1.75;;;25.10;79.10;;;;;;6858355;28;20466;-78
2022/07/04 11:58:40;;;;;;;5.28;1.70;;;25.30;76.10;;;;;;6857939;28;20439;-78
2022/07/04 12:02:15;;;;;;;4.65;1.60;;;25.50;78.00;;;;;;6856198;28;20440;-77
2022/07/04 12:05:37;;;;;;;5.10;1.50;;;25.60;74.90;;;;;;6883816;28;20486;-77
2022/07/04 12:09:02;;;;;;;4.47;1.42;;;25.60;74.60;;;;;;6863296;28;20543;-76
2022/07/04 12:12:24;;;;;;;4.73;1.53;;;25.50;78.80;;;;;;6877065;28;21019;-77
2022/07/04 12:15:48;;;;;;;4.57;1.70;;;25.60;77.00;;;;;;6884352;28;20885;-76
2022/07/04 12:19:11;;;;;;;3.88;1.40;;;25.60;77.20;;;;;;6883718;28;20439;-77
2022/07/04 12:22:37;;;;;;;5.43;1.60;;;25.90;75.10;;;;;;6883636;28;20430;-76
2022/07/04 12:26:00;;;;;;;5.80;1.65;;;25.90;76.90;;;;;;6856530;28;20874;-79
2022/07/04 12:29:24;;;;;;;4.47;1.50;;;26.00;76.10;;;;;;6829618;28;20931;-76
2022/07/04 12:32:49;;;;;;;4.32;1.50;;;26.00;76.40;;;;;;6843889;28;20894;-76
2022/07/04 12:36:11;;;;;;;4.63;1.50;;;26.20;76.00;;;;;;6883368;28;20434;-78
2022/07/04 12:39:37;;;;;;;5.10;2.00;;;26.40;77.10;;;;;;6883630;28;20987;-78
2022/07/04 12:43:00;;;;;;;5.15;1.77;;;26.50;75.30;;;;;;6829787;29;20456;-77
2022/07/04 12:46:32;;;;;;;5.43;1.58;;;26.70;75.20;;;;;;6829745;29;20480;-78
2022/07/04 12:49:57;;;;;;;4.82;1.60;;;26.70;75.70;;;;;;6846972;28;20924;-76
2022/07/04 12:53:20;;;;;;;5.22;1.45;;;26.70;71.90;;;;;;6860416;28;20447;-78
2022/07/04 12:56:44;;;;;;;4.50;1.33;;;26.60;71.30;;;;;;6856088;28;20523;-78
2022/07/04 13:00:12;;;;;;;5.32;2.03;;;26.90;71.60;;;;;;6876368;28;20438;-76
2022/07/04 13:03:34;;;;;;;8.60;3.42;;;27.00;72.00;;;;;;6883155;28;20434;-75
2022/07/04 13:06:57;;;;;;;6.15;2.78;;;27.10;70.70;;;;;;6863248;28;20929;-77
2022/07/04 13:10:19;;;;;;;5.20;1.60;;;27.20;71.20;;;;;;6882865;28;20572;-78
2022/07/04 13:13:41;;;;;;;4.43;1.50;;;27.30;71.90;;;;;;6878224;28;20481;-77
2022/07/04 13:17:04;;;;;;;3.67;1.50;;;27.50;70.90;;;;;;6855688;28;20486;-75
2022/07/04 13:20:27;;;;;;;4.57;1.50;;;27.70;71.20;;;;;;6855508;28;20479;-77
2022/07/04 13:23:49;;;;;;;5.38;1.77;;;27.80;71.40;;;;;;6855789;28;20532;-76
2022/07/04 13:27:11;;;;;;;4.57;1.50;;;27.90;70.10;;;;;;6855739;28;20440;-78
2022/07/04 13:30:34;;;;;;;7.88;2.10;;;28.00;69.10;;;;;;6882431;28;20800;-76
2022/07/04 13:33:57;;;;;;;5.90;1.92;;;28.40;68.60;;;;;;6876575;28;20946;-78
2022/07/04 13:37:20;;;;;;;6.82;2.17;;;28.60;70.60;;;;;;6882070;28;20871;-77
2022/07/04 13:40:44;;;;;;;5.68;1.90;;;28.70;68.00;;;;;;6867755;28;20776;-78
2022/07/04 13:44:08;;;;;;;7.28;1.60;;;28.80;67.20;;;;;;6882507;28;20804;-77
2022/07/04 13:47:30;;;;;;;4.68;1.65;;;28.80;67.60;;;;;;6881700;28;20450;-78
2022/07/04 13:50:53;;;;;;;5.57;1.85;;;29.00;66.90;;;;;;6858833;28;20486;-78
2022/07/04 13:54:15;;;;;;;7.53;2.30;;;29.10;66.60;;;;;;6855226;28;20474;-76
2022/07/04 13:57:38;;;;;;;7.20;1.95;;;29.40;63.30;;;;;;6855365;28;20475;-77
2022/07/04 14:01:00;;;;;;;8.55;3.22;;;29.20;64.80;;;;;;6859403;28;20485;-78
2022/07/04 14:04:23;;;;;;;6.65;2.45;;;29.70;67.90;;;;;;6867886;28;20453;-78
2022/07/04 14:07:46;;;;;;;8.73;2.67;;;29.80;67.70;;;;;;6853926;28;20494;-77
2022/07/04 14:11:09;;;;;;;4.60;1.70;;;30.10;65.40;;;;;;6851371;28;20476;-78
2022/07/04 14:14:33;;;;;;;5.97;1.57;;;29.80;64.80;;;;;;6856945;28;20583;-79
2022/07/04 14:17:55;;;;;;;5.35;1.60;;;29.60;64.30;;;;;;6858754;28;20794;-78
2022/07/04 14:21:17;;;;;;;5.13;1.73;;;29.40;64.70;;;;;;6851608;28;20535;-76
2022/07/04 14:24:41;;;;;;;5.00;1.60;;;29.40;63.60;;;;;;6845579;28;20447;-80
2022/07/04 14:28:03;;;;;;;5.10;1.60;;;29.60;64.80;;;;;;6856742;28;20495;-76
2022/07/04 14:31:25;;;;;;;4.80;1.50;;;29.60;64.10;;;;;;6859156;28;20822;-78
2022/07/04 14:34:47;;;;;;;5.00;1.60;;;29.60;62.90;;;;;;6879205;28;20444;-76
2022/07/04 14:38:09;;;;;;;4.55;1.48;;;29.40;62.00;;;;;;6859414;28;20444;-78
2022/07/04 14:41:33;;;;;;;6.28;1.55;;;29.50;62.60;;;;;;6860138;28;20492;-78
2022/07/04 14:44:55;;;;;;;3.92;1.50;;;29.50;64.00;;;;;;6859774;28;21021;-79
2022/07/04 14:48:17;;;;;;;5.60;1.50;;;29.50;62.90;;;;;;6855729;28;20730;-80
2022/07/04 14:51:40;;;;;;;4.72;1.55;;;29.70;62.40;;;;;;6858431;28;20530;-79
2022/07/04 14:55:02;;;;;;;4.93;1.75;;;29.60;62.60;;;;;;6859244;28;20444;-77
2022/07/04 14:58:25;;;;;;;4.10;1.50;;;29.50;62.90;;;;;;6857562;28;20476;-76
2022/07/04 15:01:49;;;;;;;4.38;2.40;;;29.00;62.80;;;;;;6859900;28;20467;-78
2022/07/04 15:05:11;;;;;;;4.20;1.67;;;28.80;63.00;;;;;;6867577;28;20444;-78
2022/07/04 15:08:33;;;;;;;4.22;1.50;;;29.30;61.30;;;;;;6870454;28;20806;-76
2022/07/04 15:11:55;;;;;;;6.40;1.60;;;29.50;61.90;;;;;;6864468;28;20434;-79
2022/07/04 15:15:20;;;;;;;5.03;2.20;;;29.60;61.00;;;;;;6857221;28;20539;-77
2022/07/04 15:18:42;;;;;;;8.00;4.43;;;29.50;63.00;;;;;;6874577;28;20450;-77
2022/07/04 15:25:44;;;;;;;4.25;1.40;;;29.00;62.10;;;;;;6847705;28;20536;-79
2022/07/04 15:29:06;;;;;;;5.32;1.40;;;29.10;61.10;;;;;;6856814;28;20491;-79
2022/07/04 15:32:29;;;;;;;3.50;1.30;;;29.10;61.20;;;;;;6858033;28;20492;-78
2022/07/04 15:35:55;;;;;;;3.45;1.30;;;29.10;60.90;;;;;;6856175;28;20489;-78
2022/07/04 15:39:18;;;;;;;3.85;1.45;;;29.20;61.30;;;;;;6862403;28;20452;-78
2022/07/04 15:42:40;;;;;;;3.28;1.20;;;29.30;61.40;;;;;;6858482;28;20475;-79
2022/07/04 15:46:02;;;;;;;3.53;1.37;;;29.20;61.50;;;;;;6855895;28;20516;-79
2022/07/04 15:49:25;;;;;;;4.70;1.37;;;29.10;61.30;;;;;;6856025;28;20543;-79
2022/07/04 15:52:47;;;;;;;3.58;1.40;;;29.10;59.70;;;;;;6885012;28;20800;-78
2022/07/04 15:56:09;;;;;;;4.65;1.38;;;29.10;60.60;;;;;;6872995;28;20471;-79
2022/07/04 15:59:31;;;;;;;4.65;1.40;;;29.20;60.60;;;;;;6856912;28;20477;-79
2022/07/04 16:02:53;;;;;;;3.72;1.20;;;29.10;61.50;;;;;;6856191;28;20504;-79
2022/07/04 16:06:17;;;;;;;5.60;1.40;;;28.90;61.60;;;;;;6853783;28;20464;-79
2022/07/04 16:09:39;;;;;;;4.63;1.47;;;28.80;61.70;;;;;;6849947;28;20543;-79
2022/07/04 16:13:01;;;;;;;5.40;1.50;;;28.70;61.20;;;;;;6859259;28;20476;-78
2022/07/04 16:16:23;;;;;;;5.43;1.40;;;28.50;61.10;;;;;;6870054;28;20472;-79
2022/07/04 16:19:45;;;;;;;3.93;1.60;;;28.40;62.20;;;;;;6864304;28;20469;-80
2022/07/04 16:23:08;;;;;;;3.83;1.50;;;28.00;64.00;;;;;;6852659;28;20789;-76
2022/07/04 16:26:30;;;;;;;5.18;1.40;;;28.00;63.50;;;;;;6832172;28;20444;-79
2022/07/04 16:29:53;;;;;;;5.00;1.50;;;28.10;62.90;;;;;;6847934;28;20452;-78
2022/07/04 16:33:15;;;;;;;4.90;1.50;;;27.90;63.80;;;;;;6848070;28;20990;-76
2022/07/04 16:36:37;;;;;;;3.97;1.52;;;28.10;63.60;;;;;;6875335;28;20440;-79
2022/07/04 16:40:01;;;;;;;9.98;5.20;;;27.90;62.60;;;;;;6857227;28;20470;-78
2022/07/04 16:43:23;;;;;;;6.80;3.03;;;27.90;62.90;;;;;;6857180;28;20549;-79
2022/07/04 16:46:45;;;;;;;3.93;1.60;;;27.80;63.50;;;;;;6857616;28;20510;-77
2022/07/04 16:50:09;;;;;;;4.72;1.60;;;27.80;63.10;;;;;;6853087;28;20451;-78
2022/07/04 16:53:31;;;;;;;4.90;1.83;;;27.60;64.50;;;;;;6859880;28;20465;-79
2022/07/04 16:56:54;;;;;;;5.20;1.60;;;27.70;65.30;;;;;;6857508;28;20841;-78
2022/07/04 17:00:17;;;;;;;3.90;1.50;;;27.70;64.10;;;;;;6855553;28;20448;-78
2022/07/04 17:03:39;;;;;;;6.30;1.67;;;27.40;64.10;;;;;;6853605;28;20444;-79
2022/07/04 17:07:01;;;;;;;4.33;1.40;;;27.40;65.10;;;;;;6854354;28;20462;-80
2022/07/04 17:10:23;;;;;;;4.23;1.60;;;27.30;65.30;;;;;;6855980;28;20487;-79
2022/07/04 17:13:47;;;;;;;4.85;1.60;;;27.30;65.10;;;;;;6848020;28;20502;-79
2022/07/04 17:17:09;;;;;;;4.28;1.70;;;27.00;65.00;;;;;;6849915;28;20492;-80
2022/07/04 17:20:32;;;;;;;5.75;1.75;;;27.20;65.40;;;;;;6855015;28;20483;-80
2022/07/04 17:23:54;;;;;;;8.90;4.15;;;27.30;65.20;;;;;;6855470;28;20941;-78
2022/07/04 17:27:16;;;;;;;5.32;2.35;;;27.30;65.30;;;;;;6854823;28;20486;-78
2022/07/04 17:30:40;;;;;;;4.40;1.77;;;27.30;65.00;;;;;;6857970;28;20950;-76
2022/07/04 17:34:02;;;;;;;3.40;1.50;;;27.30;64.70;;;;;;6855717;28;20869;-77
2022/07/04 17:37:24;;;;;;;4.93;1.90;;;27.30;65.00;;;;;;6882666;28;20438;-78
2022/07/04 17:41:40;;;;;;;5.35;1.70;;;27.30;66.50;;;;;;6859545;28;20488;-79
2022/07/04 17:44:29;;;;;;;4.38;1.80;;;27.20;66.00;;;;;;6859620;28;20439;-78
2022/07/04 17:47:53;;;;;;;3.88;1.70;;;27.10;65.30;;;;;;6854827;28;20479;-78
2022/07/04 17:51:15;;;;;;;4.93;1.80;;;26.90;66.60;;;;;;6853718;28;20822;-79
2022/07/04 17:54:37;;;;;;;4.68;1.85;;;26.90;66.00;;;;;;6855375;28;20459;-79
2022/07/04 17:57:59;;;;;;;6.00;1.80;;;26.90;65.20;;;;;;6865021;28;20447;-78
2022/07/04 18:01:21;;;;;;;4.18;1.65;;;26.80;65.60;;;;;;6854759;28;20514;-80
2022/07/04 18:04:45;;;;;;;5.00;1.50;;;26.90;66.90;;;;;;6859367;28;20479;-79